sensor_id;sensor_type;location;lat;lon;timestamp;P1;durP1;ratioP1;P2;durP2;ratioP2
4933;SDS011;2482;49.154;8.254;2023-07-24T00:01:21;5.80;;;4.73;;
4933;SDS011;2482;49.154;8.254;2023-07-24T00:03:48;5.20;;;4.70;;
4933;SDS011;2482;49.154;8.254;2023-07-24T00:06:15;6.23;;;4.90;;
4933;SDS011;2482;49.154;8.254;2023-07-24T00:08:42;8.40;;;4.90;;
4933;SDS011;2482;49.154;8.254;2023-07-24T00:11:09;7.50;;;5.07;;
4933;SDS011;2482;49.154;8.254;2023-07-24T00:13:36;6.30;;;4.80;;
4933;SDS011;2482;49.154;8.254;2023-07-24T00:16:07;7.87;;;4.90;;
4933;SDS011;2482;49.154;8.254;2023-07-24T00:18:35;10.83;;;5.37;;
4933;SDS011;2482;49.154;8.254;2023-07-24T00:21:02;6.07;;;4.97;;
4933;SDS011;2482;49.154;8.254;2023-07-24T00:23:29;5.70;;;4.33;;
4933;SDS011;2482;49.154;8.254;2023-07-24T00:25:56;7.57;;;5.03;;
4933;SDS011;2482;49.154;8.254;2023-07-24T00:28:23;7.90;;;5.43;;
4933;SDS011;2482;49.154;8.254;2023-07-24T00:30:50;15.83;;;5.50;;
4933;SDS011;2482;49.154;8.254;2023-07-24T00:33:17;8.63;;;5.77;;
4933;SDS011;2482;49.154;8.254;2023-07-24T00:35:44;9.00;;;5.37;;
4933;SDS011;2482;49.154;8.254;2023-07-24T00:38:11;8.37;;;5.80;;
4933;SDS011;2482;49.154;8.254;2023-07-24T00:40:38;7.23;;;5.90;;
4933;SDS011;2482;49.154;8.254;2023-07-24T00:43:05;8.77;;;6.33;;
4933;SDS011;2482;49.154;8.254;2023-07-24T00:45:32;6.43;;;4.70;;
4933;SDS011;2482;49.154;8.254;2023-07-24T00:47:59;6.50;;;5.43;;
4933;SDS011;2482;49.154;8.254;2023-07-24T00:50:27;7.37;;;5.57;;
4933;SDS011;2482;49.154;8.254;2023-07-24T00:52:56;8.97;;;5.23;;
4933;SDS011;2482;49.154;8.254;2023-07-24T00:55:23;7.30;;;5.50;;
4933;SDS011;2482;49.154;8.254;2023-07-24T00:57:51;8.50;;;6.00;;
4933;SDS011;2482;49.154;8.254;2023-07-24T01:00:18;11.90;;;5.97;;
4933;SDS011;2482;49.154;8.254;2023-07-24T01:02:45;8.80;;;6.50;;
4933;SDS011;2482;49.154;8.254;2023-07-24T01:05:13;7.70;;;5.50;;
4933;SDS011;2482;49.154;8.254;2023-07-24T01:07:43;9.70;;;6.60;;
4933;SDS011;2482;49.154;8.254;2023-07-24T01:10:10;9.00;;;6.10;;
4933;SDS011;2482;49.154;8.254;2023-07-24T01:15:33;12.83;;;6.50;;
4933;SDS011;2482;49.154;8.254;2023-07-24T01:18:06;7.83;;;5.10;;
4933;SDS011;2482;49.154;8.254;2023-07-24T01:20:37;7.53;;;5.43;;
4933;SDS011;2482;49.154;8.254;2023-07-24T01:25:51;8.80;;;6.33;;
4933;SDS011;2482;49.154;8.254;2023-07-24T01:28:21;9.87;;;6.30;;
4933;SDS011;2482;49.154;8.254;2023-07-24T01:30:48;9.47;;;6.70;;
4933;SDS011;2482;49.154;8.254;2023-07-24T01:33:15;9.27;;;6.33;;
4933;SDS011;2482;49.154;8.254;2023-07-24T01:35:42;8.00;;;5.87;;
4933;SDS011;2482;49.154;8.254;2023-07-24T01:38:11;9.50;;;5.83;;
4933;SDS011;2482;49.154;8.254;2023-07-24T01:40:40;9.13;;;6.03;;
4933;SDS011;2482;49.154;8.254;2023-07-24T01:43:08;6.27;;;5.03;;
4933;SDS011;2482;49.154;8.254;2023-07-24T01:45:35;9.97;;;6.30;;
4933;SDS011;2482;49.154;8.254;2023-07-24T01:48:03;8.70;;;5.53;;
4933;SDS011;2482;49.154;8.254;2023-07-24T01:50:31;9.30;;;6.50;;
4933;SDS011;2482;49.154;8.254;2023-07-24T01:52:59;9.80;;;6.20;;
4933;SDS011;2482;49.154;8.254;2023-07-24T01:55:26;8.40;;;6.20;;
4933;SDS011;2482;49.154;8.254;2023-07-24T01:57:53;7.57;;;5.83;;
4933;SDS011;2482;49.154;8.254;2023-07-24T02:00:20;7.83;;;5.67;;
4933;SDS011;2482;49.154;8.254;2023-07-24T02:02:47;7.10;;;5.37;;
4933;SDS011;2482;49.154;8.254;2023-07-24T02:05:14;7.10;;;5.77;;
4933;SDS011;2482;49.154;8.254;2023-07-24T02:07:41;10.40;;;5.40;;
4933;SDS011;2482;49.154;8.254;2023-07-24T02:10:08;6.40;;;5.40;;
4933;SDS011;2482;49.154;8.254;2023-07-24T02:12:35;7.87;;;6.10;;
4933;SDS011;2482;49.154;8.254;2023-07-24T02:15:02;7.63;;;5.30;;
4933;SDS011;2482;49.154;8.254;2023-07-24T02:17:30;7.90;;;5.30;;
4933;SDS011;2482;49.154;8.254;2023-07-24T02:19:57;9.80;;;6.23;;
4933;SDS011;2482;49.154;8.254;2023-07-24T02:22:24;6.50;;;4.77;;
4933;SDS011;2482;49.154;8.254;2023-07-24T02:24:51;9.53;;;5.70;;
4933;SDS011;2482;49.154;8.254;2023-07-24T02:27:25;8.97;;;5.77;;
4933;SDS011;2482;49.154;8.254;2023-07-24T02:29:54;12.33;;;5.33;;
4933;SDS011;2482;49.154;8.254;2023-07-24T02:32:21;9.03;;;5.97;;
4933;SDS011;2482;49.154;8.254;2023-07-24T02:34:52;8.17;;;5.33;;
4933;SDS011;2482;49.154;8.254;2023-07-24T02:37:19;8.07;;;5.80;;
4933;SDS011;2482;49.154;8.254;2023-07-24T02:39:46;10.60;;;5.67;;
4933;SDS011;2482;49.154;8.254;2023-07-24T02:42:13;6.83;;;5.60;;
4933;SDS011;2482;49.154;8.254;2023-07-24T02:44:40;7.07;;;5.30;;
4933;SDS011;2482;49.154;8.254;2023-07-24T02:47:07;9.00;;;6.23;;
4933;SDS011;2482;49.154;8.254;2023-07-24T02:49:34;8.60;;;6.40;;
4933;SDS011;2482;49.154;8.254;2023-07-24T02:52:01;8.03;;;6.30;;
4933;SDS011;2482;49.154;8.254;2023-07-24T02:54:28;8.97;;;5.70;;
4933;SDS011;2482;49.154;8.254;2023-07-24T02:56:55;10.27;;;6.20;;
4933;SDS011;2482;49.154;8.254;2023-07-24T02:59:22;12.17;;;6.07;;
4933;SDS011;2482;49.154;8.254;2023-07-24T03:01:49;9.47;;;5.97;;
4933;SDS011;2482;49.154;8.254;2023-07-24T03:04:16;7.70;;;6.20;;
4933;SDS011;2482;49.154;8.254;2023-07-24T03:06:44;8.70;;;5.90;;
4933;SDS011;2482;49.154;8.254;2023-07-24T03:09:11;11.30;;;6.67;;
4933;SDS011;2482;49.154;8.254;2023-07-24T03:11:38;8.40;;;6.20;;
4933;SDS011;2482;49.154;8.254;2023-07-24T03:14:05;10.93;;;5.73;;
4933;SDS011;2482;49.154;8.254;2023-07-24T03:16:32;12.03;;;7.07;;
4933;SDS011;2482;49.154;8.254;2023-07-24T03:18:59;8.17;;;6.17;;
4933;SDS011;2482;49.154;8.254;2023-07-24T03:21:26;9.23;;;5.93;;
4933;SDS011;2482;49.154;8.254;2023-07-24T03:23:53;8.70;;;5.63;;
4933;SDS011;2482;49.154;8.254;2023-07-24T03:26:20;8.03;;;5.60;;
4933;SDS011;2482;49.154;8.254;2023-07-24T03:28:47;7.43;;;5.20;;
4933;SDS011;2482;49.154;8.254;2023-07-24T03:31:15;8.20;;;6.27;;
4933;SDS011;2482;49.154;8.254;2023-07-24T03:33:43;9.27;;;7.00;;
4933;SDS011;2482;49.154;8.254;2023-07-24T03:36:10;9.43;;;5.87;;
4933;SDS011;2482;49.154;8.254;2023-07-24T03:38:37;8.83;;;6.63;;
4933;SDS011;2482;49.154;8.254;2023-07-24T03:41:03;9.00;;;6.27;;
4933;SDS011;2482;49.154;8.254;2023-07-24T03:43:30;8.00;;;6.10;;
4933;SDS011;2482;49.154;8.254;2023-07-24T03:45:57;8.93;;;7.17;;
4933;SDS011;2482;49.154;8.254;2023-07-24T03:48:24;8.80;;;6.17;;
4933;SDS011;2482;49.154;8.254;2023-07-24T03:50:57;8.80;;;6.40;;
4933;SDS011;2482;49.154;8.254;2023-07-24T03:53:26;11.80;;;6.43;;
4933;SDS011;2482;49.154;8.254;2023-07-24T03:55:53;8.93;;;5.83;;
4933;SDS011;2482;49.154;8.254;2023-07-24T03:58:21;8.27;;;6.67;;
4933;SDS011;2482;49.154;8.254;2023-07-24T04:00:48;9.97;;;6.00;;
4933;SDS011;2482;49.154;8.254;2023-07-24T04:03:15;8.10;;;5.80;;
4933;SDS011;2482;49.154;8.254;2023-07-24T04:05:43;8.93;;;6.17;;
4933;SDS011;2482;49.154;8.254;2023-07-24T04:08:10;8.47;;;6.33;;
4933;SDS011;2482;49.154;8.254;2023-07-24T04:10:39;9.57;;;6.67;;
4933;SDS011;2482;49.154;8.254;2023-07-24T04:13:06;9.50;;;7.23;;
4933;SDS011;2482;49.154;8.254;2023-07-24T04:15:33;15.00;;;8.23;;
4933;SDS011;2482;49.154;8.254;2023-07-24T04:18:00;10.80;;;7.43;;
4933;SDS011;2482;49.154;8.254;2023-07-24T04:20:27;10.63;;;6.27;;
4933;SDS011;2482;49.154;8.254;2023-07-24T04:22:54;10.20;;;6.97;;
4933;SDS011;2482;49.154;8.254;2023-07-24T04:25:21;13.60;;;7.70;;
4933;SDS011;2482;49.154;8.254;2023-07-24T04:27:48;12.00;;;7.87;;
4933;SDS011;2482;49.154;8.254;2023-07-24T04:30:15;9.50;;;6.73;;
4933;SDS011;2482;49.154;8.254;2023-07-24T04:32:42;8.40;;;6.20;;
4933;SDS011;2482;49.154;8.254;2023-07-24T04:35:09;14.70;;;7.10;;
4933;SDS011;2482;49.154;8.254;2023-07-24T04:37:36;9.13;;;6.63;;
4933;SDS011;2482;49.154;8.254;2023-07-24T04:40:04;8.20;;;6.33;;
4933;SDS011;2482;49.154;8.254;2023-07-24T04:42:31;12.53;;;7.60;;
4933;SDS011;2482;49.154;8.254;2023-07-24T04:44:59;11.43;;;7.50;;
4933;SDS011;2482;49.154;8.254;2023-07-24T04:47:26;11.00;;;7.53;;
4933;SDS011;2482;49.154;8.254;2023-07-24T04:49:53;9.17;;;7.53;;
4933;SDS011;2482;49.154;8.254;2023-07-24T04:52:21;10.70;;;7.40;;
4933;SDS011;2482;49.154;8.254;2023-07-24T04:54:48;9.43;;;6.40;;
4933;SDS011;2482;49.154;8.254;2023-07-24T04:57:15;10.30;;;7.03;;
4933;SDS011;2482;49.154;8.254;2023-07-24T04:59:42;10.07;;;7.40;;
4933;SDS011;2482;49.154;8.254;2023-07-24T05:02:10;11.00;;;7.80;;
4933;SDS011;2482;49.154;8.254;2023-07-24T05:04:37;10.73;;;7.00;;
4933;SDS011;2482;49.154;8.254;2023-07-24T05:07:04;10.83;;;7.47;;
4933;SDS011;2482;49.154;8.254;2023-07-24T05:09:31;8.90;;;7.00;;
4933;SDS011;2482;49.154;8.254;2023-07-24T05:11:58;13.90;;;7.77;;
4933;SDS011;2482;49.154;8.254;2023-07-24T05:14:25;10.33;;;7.70;;
4933;SDS011;2482;49.154;8.254;2023-07-24T05:16:52;11.63;;;7.10;;
4933;SDS011;2482;49.154;8.254;2023-07-24T05:19:19;12.20;;;6.80;;
4933;SDS011;2482;49.154;8.254;2023-07-24T05:21:46;14.73;;;7.83;;
4933;SDS011;2482;49.154;8.254;2023-07-24T05:24:13;10.27;;;7.77;;
4933;SDS011;2482;49.154;8.254;2023-07-24T05:26:40;13.83;;;7.70;;
4933;SDS011;2482;49.154;8.254;2023-07-24T05:29:07;13.03;;;8.00;;
4933;SDS011;2482;49.154;8.254;2023-07-24T05:31:35;12.07;;;6.90;;
4933;SDS011;2482;49.154;8.254;2023-07-24T05:34:02;10.47;;;7.90;;
4933;SDS011;2482;49.154;8.254;2023-07-24T05:36:30;11.53;;;7.17;;
4933;SDS011;2482;49.154;8.254;2023-07-24T05:38:57;10.00;;;7.00;;
4933;SDS011;2482;49.154;8.254;2023-07-24T05:41:24;9.93;;;7.30;;
4933;SDS011;2482;49.154;8.254;2023-07-24T05:43:52;10.47;;;7.20;;
4933;SDS011;2482;49.154;8.254;2023-07-24T05:46:19;11.60;;;7.80;;
4933;SDS011;2482;49.154;8.254;2023-07-24T05:48:46;11.90;;;6.80;;
4933;SDS011;2482;49.154;8.254;2023-07-24T05:51:13;9.77;;;7.93;;
4933;SDS011;2482;49.154;8.254;2023-07-24T05:53:40;14.20;;;8.03;;
4933;SDS011;2482;49.154;8.254;2023-07-24T05:56:07;11.80;;;7.80;;
4933;SDS011;2482;49.154;8.254;2023-07-24T05:58:34;11.43;;;7.83;;
4933;SDS011;2482;49.154;8.254;2023-07-24T06:01:01;8.87;;;6.90;;
4933;SDS011;2482;49.154;8.254;2023-07-24T06:03:29;11.77;;;8.03;;
4933;SDS011;2482;49.154;8.254;2023-07-24T06:05:57;15.03;;;7.30;;
4933;SDS011;2482;49.154;8.254;2023-07-24T06:08:24;12.40;;;8.57;;
4933;SDS011;2482;49.154;8.254;2023-07-24T06:10:51;12.97;;;8.30;;
4933;SDS011;2482;49.154;8.254;2023-07-24T06:13:18;12.17;;;7.87;;
4933;SDS011;2482;49.154;8.254;2023-07-24T06:15:49;11.10;;;7.97;;
4933;SDS011;2482;49.154;8.254;2023-07-24T06:18:17;9.77;;;7.30;;
4933;SDS011;2482;49.154;8.254;2023-07-24T06:20:44;13.57;;;8.00;;
4933;SDS011;2482;49.154;8.254;2023-07-24T06:23:11;11.80;;;7.70;;
4933;SDS011;2482;49.154;8.254;2023-07-24T06:25:38;10.70;;;7.53;;
4933;SDS011;2482;49.154;8.254;2023-07-24T06:28:05;13.13;;;7.80;;
4933;SDS011;2482;49.154;8.254;2023-07-24T06:30:32;11.07;;;7.20;;
4933;SDS011;2482;49.154;8.254;2023-07-24T06:32:59;11.60;;;7.10;;
4933;SDS011;2482;49.154;8.254;2023-07-24T06:35:26;11.47;;;7.53;;
4933;SDS011;2482;49.154;8.254;2023-07-24T06:37:53;9.83;;;7.47;;
4933;SDS011;2482;49.154;8.254;2023-07-24T06:40:20;9.37;;;7.00;;
4933;SDS011;2482;49.154;8.254;2023-07-24T06:42:47;9.70;;;7.90;;
4933;SDS011;2482;49.154;8.254;2023-07-24T06:45:14;11.90;;;7.27;;
4933;SDS011;2482;49.154;8.254;2023-07-24T06:47:42;12.27;;;7.60;;
4933;SDS011;2482;49.154;8.254;2023-07-24T06:50:10;12.73;;;7.10;;
4933;SDS011;2482;49.154;8.254;2023-07-24T06:52:37;10.20;;;7.60;;
4933;SDS011;2482;49.154;8.254;2023-07-24T06:55:04;9.87;;;7.23;;
4933;SDS011;2482;49.154;8.254;2023-07-24T06:57:32;11.00;;;8.03;;
4933;SDS011;2482;49.154;8.254;2023-07-24T06:59:58;13.63;;;8.03;;
4933;SDS011;2482;49.154;8.254;2023-07-24T07:02:25;10.53;;;6.70;;
4933;SDS011;2482;49.154;8.254;2023-07-24T07:04:54;11.93;;;7.57;;
4933;SDS011;2482;49.154;8.254;2023-07-24T07:07:21;11.30;;;8.23;;
4933;SDS011;2482;49.154;8.254;2023-07-24T07:09:48;9.77;;;7.60;;
4933;SDS011;2482;49.154;8.254;2023-07-24T07:12:15;12.50;;;7.47;;
4933;SDS011;2482;49.154;8.254;2023-07-24T07:14:44;9.47;;;7.00;;
4933;SDS011;2482;49.154;8.254;2023-07-24T07:17:11;11.27;;;7.23;;
4933;SDS011;2482;49.154;8.254;2023-07-24T07:19:38;12.73;;;7.80;;
4933;SDS011;2482;49.154;8.254;2023-07-24T07:22:05;13.17;;;7.40;;
4933;SDS011;2482;49.154;8.254;2023-07-24T07:24:32;14.13;;;7.43;;
4933;SDS011;2482;49.154;8.254;2023-07-24T07:26:59;28.20;;;8.50;;
4933;SDS011;2482;49.154;8.254;2023-07-24T07:29:26;25.00;;;9.10;;
4933;SDS011;2482;49.154;8.254;2023-07-24T07:31:53;135.83;;;16.87;;
4933;SDS011;2482;49.154;8.254;2023-07-24T07:34:20;19.10;;;7.30;;
4933;SDS011;2482;49.154;8.254;2023-07-24T07:36:47;60.00;;;9.73;;
4933;SDS011;2482;49.154;8.254;2023-07-24T07:39:14;20.03;;;8.00;;
4933;SDS011;2482;49.154;8.254;2023-07-24T07:41:42;16.60;;;7.10;;
4933;SDS011;2482;49.154;8.254;2023-07-24T07:44:09;13.53;;;7.30;;
4933;SDS011;2482;49.154;8.254;2023-07-24T07:46:36;9.67;;;6.83;;
4933;SDS011;2482;49.154;8.254;2023-07-24T07:49:03;11.83;;;6.57;;
4933;SDS011;2482;49.154;8.254;2023-07-24T07:51:30;10.77;;;7.23;;
4933;SDS011;2482;49.154;8.254;2023-07-24T07:53:57;10.77;;;7.20;;
4933;SDS011;2482;49.154;8.254;2023-07-24T07:56:24;10.33;;;7.03;;
4933;SDS011;2482;49.154;8.254;2023-07-24T07:58:51;9.70;;;6.97;;
4933;SDS011;2482;49.154;8.254;2023-07-24T08:01:18;11.37;;;6.30;;
4933;SDS011;2482;49.154;8.254;2023-07-24T08:03:45;12.30;;;7.00;;
4933;SDS011;2482;49.154;8.254;2023-07-24T08:06:12;10.23;;;6.73;;
4933;SDS011;2482;49.154;8.254;2023-07-24T08:08:39;11.80;;;6.80;;
4933;SDS011;2482;49.154;8.254;2023-07-24T08:11:06;8.53;;;6.77;;
4933;SDS011;2482;49.154;8.254;2023-07-24T08:13:33;10.83;;;6.73;;
4933;SDS011;2482;49.154;8.254;2023-07-24T08:16:01;15.40;;;7.00;;
4933;SDS011;2482;49.154;8.254;2023-07-24T08:18:30;9.30;;;6.30;;
4933;SDS011;2482;49.154;8.254;2023-07-24T08:20:57;10.13;;;6.97;;
4933;SDS011;2482;49.154;8.254;2023-07-24T08:23:24;12.47;;;7.30;;
4933;SDS011;2482;49.154;8.254;2023-07-24T08:25:54;11.70;;;6.53;;
4933;SDS011;2482;49.154;8.254;2023-07-24T08:28:22;9.33;;;6.57;;
4933;SDS011;2482;49.154;8.254;2023-07-24T08:30:58;9.43;;;6.70;;
4933;SDS011;2482;49.154;8.254;2023-07-24T08:33:32;10.27;;;7.10;;
4933;SDS011;2482;49.154;8.254;2023-07-24T08:36:00;8.70;;;6.57;;
4933;SDS011;2482;49.154;8.254;2023-07-24T08:38:29;11.83;;;7.03;;
4933;SDS011;2482;49.154;8.254;2023-07-24T08:41:00;12.23;;;6.67;;
4933;SDS011;2482;49.154;8.254;2023-07-24T08:43:31;10.07;;;6.67;;
4933;SDS011;2482;49.154;8.254;2023-07-24T08:45:59;9.40;;;6.20;;
4933;SDS011;2482;49.154;8.254;2023-07-24T08:51:06;13.57;;;6.40;;
4933;SDS011;2482;49.154;8.254;2023-07-24T08:53:35;8.97;;;5.93;;
4933;SDS011;2482;49.154;8.254;2023-07-24T08:56:05;9.40;;;6.30;;
4933;SDS011;2482;49.154;8.254;2023-07-24T08:58:38;10.07;;;7.00;;
4933;SDS011;2482;49.154;8.254;2023-07-24T09:01:09;8.70;;;6.33;;
4933;SDS011;2482;49.154;8.254;2023-07-24T09:03:36;10.87;;;7.47;;
4933;SDS011;2482;49.154;8.254;2023-07-24T09:06:04;7.53;;;6.60;;
4933;SDS011;2482;49.154;8.254;2023-07-24T09:08:36;9.03;;;6.67;;
4933;SDS011;2482;49.154;8.254;2023-07-24T09:11:08;9.43;;;6.17;;
4933;SDS011;2482;49.154;8.254;2023-07-24T09:13:36;10.10;;;6.53;;
4933;SDS011;2482;49.154;8.254;2023-07-24T09:16:08;10.43;;;6.80;;
4933;SDS011;2482;49.154;8.254;2023-07-24T09:21:09;12.60;;;6.23;;
4933;SDS011;2482;49.154;8.254;2023-07-24T09:23:39;9.47;;;6.40;;
4933;SDS011;2482;49.154;8.254;2023-07-24T09:26:10;13.70;;;7.27;;
4933;SDS011;2482;49.154;8.254;2023-07-24T09:28:37;9.37;;;6.00;;
4933;SDS011;2482;49.154;8.254;2023-07-24T09:31:04;7.30;;;6.10;;
4933;SDS011;2482;49.154;8.254;2023-07-24T09:36:10;8.33;;;5.53;;
4933;SDS011;2482;49.154;8.254;2023-07-24T09:38:37;7.07;;;5.40;;
4933;SDS011;2482;49.154;8.254;2023-07-24T09:41:06;9.70;;;6.30;;
4933;SDS011;2482;49.154;8.254;2023-07-24T09:43:34;11.50;;;5.87;;
4933;SDS011;2482;49.154;8.254;2023-07-24T09:46:07;7.23;;;5.70;;
4933;SDS011;2482;49.154;8.254;2023-07-24T09:48:36;9.37;;;6.10;;
4933;SDS011;2482;49.154;8.254;2023-07-24T09:51:07;7.57;;;5.70;;
4933;SDS011;2482;49.154;8.254;2023-07-24T09:53:43;12.53;;;6.77;;
4933;SDS011;2482;49.154;8.254;2023-07-24T09:56:28;8.67;;;5.70;;
4933;SDS011;2482;49.154;8.254;2023-07-24T09:59:15;10.60;;;6.47;;
4933;SDS011;2482;49.154;8.254;2023-07-24T10:01:43;8.97;;;5.67;;
4933;SDS011;2482;49.154;8.254;2023-07-24T10:04:10;8.40;;;5.87;;
4933;SDS011;2482;49.154;8.254;2023-07-24T10:06:39;10.50;;;6.20;;
4933;SDS011;2482;49.154;8.254;2023-07-24T10:09:06;8.20;;;5.73;;
4933;SDS011;2482;49.154;8.254;2023-07-24T10:11:34;7.80;;;6.10;;
4933;SDS011;2482;49.154;8.254;2023-07-24T10:14:01;8.93;;;5.97;;
4933;SDS011;2482;49.154;8.254;2023-07-24T10:16:29;9.93;;;6.47;;
4933;SDS011;2482;49.154;8.254;2023-07-24T10:18:56;9.60;;;6.20;;
4933;SDS011;2482;49.154;8.254;2023-07-24T10:21:27;10.50;;;6.27;;
4933;SDS011;2482;49.154;8.254;2023-07-24T10:23:55;7.90;;;5.50;;
4933;SDS011;2482;49.154;8.254;2023-07-24T10:26:26;9.07;;;6.23;;
4933;SDS011;2482;49.154;8.254;2023-07-24T10:28:53;12.77;;;6.73;;
4933;SDS011;2482;49.154;8.254;2023-07-24T10:31:22;8.13;;;6.27;;
4933;SDS011;2482;49.154;8.254;2023-07-24T10:34:03;8.10;;;6.30;;
4933;SDS011;2482;49.154;8.254;2023-07-24T10:36:34;11.07;;;6.10;;
4933;SDS011;2482;49.154;8.254;2023-07-24T10:39:02;10.13;;;7.03;;
4933;SDS011;2482;49.154;8.254;2023-07-24T10:41:40;11.40;;;6.50;;
4933;SDS011;2482;49.154;8.254;2023-07-24T10:44:07;10.70;;;6.70;;
4933;SDS011;2482;49.154;8.254;2023-07-24T10:46:38;11.00;;;6.47;;
4933;SDS011;2482;49.154;8.254;2023-07-24T10:49:07;12.50;;;6.43;;
4933;SDS011;2482;49.154;8.254;2023-07-24T10:51:35;10.40;;;6.30;;
4933;SDS011;2482;49.154;8.254;2023-07-24T10:54:04;9.40;;;5.60;;
4933;SDS011;2482;49.154;8.254;2023-07-24T10:56:32;7.40;;;6.17;;
4933;SDS011;2482;49.154;8.254;2023-07-24T10:59:03;7.93;;;5.63;;
4933;SDS011;2482;49.154;8.254;2023-07-24T11:01:31;6.67;;;5.33;;
4933;SDS011;2482;49.154;8.254;2023-07-24T11:04:00;10.23;;;6.07;;
4933;SDS011;2482;49.154;8.254;2023-07-24T11:06:27;10.47;;;6.07;;
4933;SDS011;2482;49.154;8.254;2023-07-24T11:08:56;8.83;;;5.53;;
4933;SDS011;2482;49.154;8.254;2023-07-24T11:11:32;8.33;;;5.50;;
4933;SDS011;2482;49.154;8.254;2023-07-24T11:14:02;7.57;;;5.53;;
4933;SDS011;2482;49.154;8.254;2023-07-24T11:16:30;7.57;;;6.10;;
4933;SDS011;2482;49.154;8.254;2023-07-24T11:19:00;7.37;;;5.17;;
4933;SDS011;2482;49.154;8.254;2023-07-24T11:21:27;8.40;;;6.03;;
4933;SDS011;2482;49.154;8.254;2023-07-24T11:23:56;8.40;;;6.10;;
4933;SDS011;2482;49.154;8.254;2023-07-24T11:26:24;8.30;;;5.80;;
4933;SDS011;2482;49.154;8.254;2023-07-24T11:28:53;8.00;;;5.90;;
4933;SDS011;2482;49.154;8.254;2023-07-24T11:31:20;7.97;;;5.80;;
4933;SDS011;2482;49.154;8.254;2023-07-24T11:33:48;9.17;;;6.00;;
4933;SDS011;2482;49.154;8.254;2023-07-24T11:36:17;15.07;;;6.50;;
4933;SDS011;2482;49.154;8.254;2023-07-24T11:38:48;10.17;;;5.83;;
4933;SDS011;2482;49.154;8.254;2023-07-24T11:41:16;6.80;;;5.20;;
4933;SDS011;2482;49.154;8.254;2023-07-24T11:43:52;10.03;;;6.20;;
4933;SDS011;2482;49.154;8.254;2023-07-24T11:46:22;17.20;;;6.63;;
4933;SDS011;2482;49.154;8.254;2023-07-24T11:48:55;8.80;;;6.33;;
4933;SDS011;2482;49.154;8.254;2023-07-24T11:51:25;8.63;;;5.53;;
4933;SDS011;2482;49.154;8.254;2023-07-24T11:54:04;9.50;;;6.90;;
4933;SDS011;2482;49.154;8.254;2023-07-24T11:56:38;10.53;;;6.97;;
4933;SDS011;2482;49.154;8.254;2023-07-24T12:01:40;8.13;;;5.90;;
4933;SDS011;2482;49.154;8.254;2023-07-24T12:04:11;9.57;;;5.60;;
4933;SDS011;2482;49.154;8.254;2023-07-24T12:06:40;7.77;;;6.10;;
4933;SDS011;2482;49.154;8.254;2023-07-24T12:09:07;7.00;;;6.17;;
4933;SDS011;2482;49.154;8.254;2023-07-24T12:11:43;7.90;;;5.93;;
4933;SDS011;2482;49.154;8.254;2023-07-24T12:14:15;6.33;;;5.40;;
4933;SDS011;2482;49.154;8.254;2023-07-24T12:16:42;6.53;;;5.10;;
4933;SDS011;2482;49.154;8.254;2023-07-24T12:19:10;8.93;;;5.93;;
4933;SDS011;2482;49.154;8.254;2023-07-24T12:21:37;8.80;;;5.83;;
4933;SDS011;2482;49.154;8.254;2023-07-24T12:24:04;8.40;;;5.97;;
4933;SDS011;2482;49.154;8.254;2023-07-24T12:26:32;7.57;;;5.80;;
4933;SDS011;2482;49.154;8.254;2023-07-24T12:28:59;6.53;;;5.13;;
4933;SDS011;2482;49.154;8.254;2023-07-24T12:31:27;7.80;;;5.03;;
4933;SDS011;2482;49.154;8.254;2023-07-24T12:33:55;13.37;;;5.73;;
4933;SDS011;2482;49.154;8.254;2023-07-24T12:36:22;7.70;;;5.30;;
4933;SDS011;2482;49.154;8.254;2023-07-24T12:38:50;7.00;;;5.20;;
4933;SDS011;2482;49.154;8.254;2023-07-24T12:41:17;7.93;;;5.20;;
4933;SDS011;2482;49.154;8.254;2023-07-24T12:43:44;5.77;;;5.07;;
4933;SDS011;2482;49.154;8.254;2023-07-24T12:46:11;5.97;;;5.10;;
4933;SDS011;2482;49.154;8.254;2023-07-24T12:48:38;13.03;;;5.07;;
4933;SDS011;2482;49.154;8.254;2023-07-24T12:51:05;7.83;;;5.33;;
4933;SDS011;2482;49.154;8.254;2023-07-24T12:53:32;9.47;;;6.00;;
4933;SDS011;2482;49.154;8.254;2023-07-24T12:56:14;8.07;;;5.17;;
4933;SDS011;2482;49.154;8.254;2023-07-24T12:58:41;8.87;;;6.10;;
4933;SDS011;2482;49.154;8.254;2023-07-24T13:01:08;13.50;;;6.83;;
4933;SDS011;2482;49.154;8.254;2023-07-24T13:03:35;8.53;;;5.63;;
4933;SDS011;2482;49.154;8.254;2023-07-24T13:06:02;6.40;;;5.10;;
4933;SDS011;2482;49.154;8.254;2023-07-24T13:08:29;7.17;;;5.73;;
4933;SDS011;2482;49.154;8.254;2023-07-24T13:10:56;6.03;;;5.00;;
4933;SDS011;2482;49.154;8.254;2023-07-24T13:13:24;9.77;;;6.50;;
4933;SDS011;2482;49.154;8.254;2023-07-24T13:15:51;8.47;;;5.83;;
4933;SDS011;2482;49.154;8.254;2023-07-24T13:18:18;7.43;;;5.70;;
4933;SDS011;2482;49.154;8.254;2023-07-24T13:20:55;6.43;;;5.13;;
4933;SDS011;2482;49.154;8.254;2023-07-24T13:23:22;7.30;;;5.40;;
4933;SDS011;2482;49.154;8.254;2023-07-24T13:25:51;7.40;;;5.90;;
4933;SDS011;2482;49.154;8.254;2023-07-24T13:28:19;13.10;;;5.70;;
4933;SDS011;2482;49.154;8.254;2023-07-24T13:30:46;9.67;;;5.30;;
4933;SDS011;2482;49.154;8.254;2023-07-24T13:33:14;7.93;;;5.53;;
4933;SDS011;2482;49.154;8.254;2023-07-24T13:35:41;8.17;;;6.03;;
4933;SDS011;2482;49.154;8.254;2023-07-24T13:38:08;7.77;;;5.10;;
4933;SDS011;2482;49.154;8.254;2023-07-24T13:40:36;7.13;;;5.60;;
4933;SDS011;2482;49.154;8.254;2023-07-24T13:43:03;7.37;;;5.53;;
4933;SDS011;2482;49.154;8.254;2023-07-24T13:45:31;7.53;;;5.27;;
4933;SDS011;2482;49.154;8.254;2023-07-24T13:47:58;6.60;;;5.60;;
4933;SDS011;2482;49.154;8.254;2023-07-24T13:50:25;20.97;;;5.90;;
4933;SDS011;2482;49.154;8.254;2023-07-24T13:52:52;7.73;;;5.63;;
4933;SDS011;2482;49.154;8.254;2023-07-24T13:55:19;8.17;;;4.83;;
4933;SDS011;2482;49.154;8.254;2023-07-24T13:57:46;11.13;;;5.63;;
4933;SDS011;2482;49.154;8.254;2023-07-24T14:00:13;6.90;;;5.20;;
4933;SDS011;2482;49.154;8.254;2023-07-24T14:02:41;10.30;;;5.47;;
4933;SDS011;2482;49.154;8.254;2023-07-24T14:05:08;6.80;;;4.67;;
4933;SDS011;2482;49.154;8.254;2023-07-24T14:07:35;7.73;;;5.77;;
4933;SDS011;2482;49.154;8.254;2023-07-24T14:10:02;6.67;;;5.37;;
4933;SDS011;2482;49.154;8.254;2023-07-24T14:12:30;6.50;;;5.00;;
4933;SDS011;2482;49.154;8.254;2023-07-24T14:14:56;7.47;;;5.10;;
4933;SDS011;2482;49.154;8.254;2023-07-24T14:17:23;7.30;;;5.00;;
4933;SDS011;2482;49.154;8.254;2023-07-24T14:19:52;8.20;;;5.57;;
4933;SDS011;2482;49.154;8.254;2023-07-24T14:22:19;11.70;;;6.00;;
4933;SDS011;2482;49.154;8.254;2023-07-24T14:24:46;19.67;;;5.53;;
4933;SDS011;2482;49.154;8.254;2023-07-24T14:27:13;11.10;;;5.90;;
4933;SDS011;2482;49.154;8.254;2023-07-24T14:29:42;10.73;;;5.37;;
4933;SDS011;2482;49.154;8.254;2023-07-24T14:32:12;9.23;;;6.87;;
4933;SDS011;2482;49.154;8.254;2023-07-24T14:34:53;12.67;;;7.37;;
4933;SDS011;2482;49.154;8.254;2023-07-24T14:37:21;17.43;;;8.00;;
4933;SDS011;2482;49.154;8.254;2023-07-24T14:39:50;12.63;;;7.80;;
4933;SDS011;2482;49.154;8.254;2023-07-24T14:42:17;11.10;;;7.80;;
4933;SDS011;2482;49.154;8.254;2023-07-24T14:44:44;12.00;;;7.00;;
4933;SDS011;2482;49.154;8.254;2023-07-24T14:47:11;11.03;;;7.60;;
4933;SDS011;2482;49.154;8.254;2023-07-24T14:49:39;8.90;;;7.10;;
4933;SDS011;2482;49.154;8.254;2023-07-24T14:52:06;10.20;;;6.97;;
4933;SDS011;2482;49.154;8.254;2023-07-24T14:54:33;14.47;;;7.53;;
4933;SDS011;2482;49.154;8.254;2023-07-24T14:57:06;13.17;;;7.53;;
4933;SDS011;2482;49.154;8.254;2023-07-24T14:59:52;11.13;;;7.53;;
4933;SDS011;2482;49.154;8.254;2023-07-24T15:02:21;10.43;;;6.73;;
4933;SDS011;2482;49.154;8.254;2023-07-24T15:07:21;10.23;;;7.30;;
4933;SDS011;2482;49.154;8.254;2023-07-24T15:09:48;11.77;;;7.40;;
4933;SDS011;2482;49.154;8.254;2023-07-24T15:12:15;8.07;;;6.63;;
4933;SDS011;2482;49.154;8.254;2023-07-24T15:14:43;10.67;;;6.47;;
4933;SDS011;2482;49.154;8.254;2023-07-24T15:17:10;8.93;;;5.87;;
4933;SDS011;2482;49.154;8.254;2023-07-24T15:19:41;11.10;;;6.20;;
4933;SDS011;2482;49.154;8.254;2023-07-24T15:22:11;8.00;;;5.50;;
4933;SDS011;2482;49.154;8.254;2023-07-24T15:24:39;7.03;;;5.17;;
4933;SDS011;2482;49.154;8.254;2023-07-24T15:27:08;7.27;;;5.57;;
4933;SDS011;2482;49.154;8.254;2023-07-24T15:29:36;7.17;;;4.67;;
4933;SDS011;2482;49.154;8.254;2023-07-24T15:32:04;6.00;;;4.67;;
4933;SDS011;2482;49.154;8.254;2023-07-24T15:34:32;7.10;;;5.00;;